Glendale Springs, North Carolina
Current Conditions -  °F | °C
As of 6:55 PM on Sunday 21 Dec 2014 (Local Time) from KGEV Reporting Station
Haze Haze  
Wind Chill:   Ceiling: 700
Heat Index:   Visibility: 5mi
Dew Point:   Wind: 3mph
Humidity: 87%   Direction: 130°SE
Pressure: 30.14"   Gusts: NA
Location:  36.35°N, 81.38°W
Report Text: KGEV 212355Z AUTO 13003KT 5SM BR OVC007 02/00 A3014 RMK AO2 T00210001 10057 20021
Loading
Personal Weather Stations






























Interactive Weather Map New forecast layout! Learn more

10-Day Weather Forecast

Advertisements
Track Severe Weather on mobile